createdAt,value
2018-11-14T00:03:30.636Z,11.30
2018-11-14T00:07:34.129Z,12.90
2018-11-14T00:11:37.661Z,11.93
2018-11-14T00:15:41.142Z,12.17
2018-11-14T00:19:44.595Z,12.00
2018-11-14T00:23:48.318Z,11.50
2018-11-14T00:27:51.825Z,13.17
2018-11-14T00:31:55.246Z,13.23
2018-11-14T00:35:59.022Z,11.47
2018-11-14T00:40:02.506Z,11.17
2018-11-14T00:44:06.072Z,12.33
2018-11-14T00:48:15.935Z,13.17
2018-11-14T00:52:19.416Z,11.33
2018-11-14T00:56:22.895Z,12.83
2018-11-14T01:00:26.610Z,12.57
2018-11-14T01:04:30.117Z,10.30
2018-11-14T01:08:33.627Z,13.00
2018-11-14T01:12:37.095Z,13.70
2018-11-14T01:16:40.588Z,12.13
2018-11-14T01:20:44.073Z,11.67
2018-11-14T01:24:47.551Z,12.53
2018-11-14T01:28:51.019Z,11.03
2018-11-14T01:32:55.033Z,12.37
2018-11-14T01:36:58.557Z,12.57
2018-11-14T01:41:02.130Z,13.00
2018-11-14T01:45:08.258Z,9.67
2018-11-14T01:49:11.805Z,9.73
2018-11-14T01:53:15.448Z,10.77
2018-11-14T01:57:18.904Z,9.57
2018-11-14T02:01:22.409Z,9.73
2018-11-14T02:05:25.914Z,8.67
2018-11-14T02:09:29.486Z,7.93
2018-11-14T02:13:32.930Z,9.97
2018-11-14T02:17:36.728Z,9.60
2018-11-14T02:21:40.207Z,9.43
2018-11-14T02:25:43.754Z,13.30
2018-11-14T02:29:47.260Z,8.97
2018-11-14T02:33:50.734Z,11.67
2018-11-14T02:37:54.212Z,9.37
2018-11-14T02:41:57.671Z,9.73
2018-11-14T02:46:01.233Z,11.13
2018-11-14T02:50:04.987Z,9.10
2018-11-14T02:54:08.483Z,9.13
2018-11-14T02:58:11.979Z,8.70
2018-11-14T03:02:15.471Z,8.20
2018-11-14T03:06:18.922Z,8.53
2018-11-14T03:10:22.578Z,7.57
2018-11-14T03:14:26.091Z,7.43
2018-11-14T03:18:29.605Z,7.87
2018-11-14T03:22:33.083Z,9.13
2018-11-14T03:26:36.766Z,6.93
2018-11-14T03:30:40.202Z,6.33
2018-11-14T03:34:43.691Z,7.10
2018-11-14T03:38:47.452Z,7.80
2018-11-14T03:42:50.926Z,7.40
2018-11-14T03:46:54.413Z,8.73
2018-11-14T03:50:57.912Z,6.67
2018-11-14T03:55:01.735Z,6.67
2018-11-14T03:59:05.335Z,6.50
2018-11-14T04:03:09.061Z,7.13
2018-11-14T04:07:12.676Z,7.13
2018-11-14T04:11:16.427Z,9.97
2018-11-14T04:15:19.908Z,6.47
2018-11-14T04:19:23.397Z,5.70
2018-11-14T04:23:26.914Z,5.67
2018-11-14T04:27:30.371Z,10.90
2018-11-14T04:31:33.865Z,6.77
2018-11-14T04:35:37.350Z,5.70
2018-11-14T04:39:40.869Z,6.40
2018-11-14T04:43:44.392Z,6.33
2018-11-14T04:47:47.930Z,6.43
2018-11-14T04:51:51.386Z,5.30
2018-11-14T04:55:55.115Z,5.87
2018-11-14T04:59:58.580Z,7.03
2018-11-14T05:04:02.051Z,8.17
2018-11-14T05:08:06.216Z,6.10
2018-11-14T05:12:09.698Z,5.97
2018-11-14T05:16:13.146Z,7.17
2018-11-14T05:20:17.787Z,6.93
2018-11-14T05:24:21.328Z,8.43
2018-11-14T05:28:24.775Z,7.23
2018-11-14T05:32:28.265Z,7.87
2018-11-14T05:36:31.758Z,10.27
2018-11-14T05:40:35.235Z,6.87
2018-11-14T05:44:38.753Z,7.17
2018-11-14T05:48:42.274Z,9.90
2018-11-14T05:52:45.688Z,8.70
2018-11-14T05:56:49.147Z,8.10
2018-11-14T06:00:52.644Z,9.20
2018-11-14T06:04:56.078Z,7.87
2018-11-14T06:08:59.588Z,7.60
2018-11-14T06:13:03.058Z,8.03
2018-11-14T06:17:06.561Z,8.83
2018-11-14T06:21:10.033Z,8.40
2018-11-14T06:25:33.317Z,6.90
2018-11-14T06:29:36.800Z,7.30
2018-11-14T06:33:40.331Z,7.60
2018-11-14T06:37:43.764Z,7.37
2018-11-14T06:41:47.304Z,7.37
2018-11-14T06:45:50.724Z,7.53
2018-11-14T06:49:54.272Z,6.27
2018-11-14T06:53:58.222Z,7.37
2018-11-14T06:58:01.702Z,6.97
2018-11-14T07:02:05.213Z,7.67
2018-11-14T07:06:08.490Z,7.80
2018-11-14T07:10:13.886Z,8.10
2018-11-14T07:14:17.349Z,10.97
2018-11-14T07:18:20.828Z,8.03
2018-11-14T07:22:24.309Z,10.03
2018-11-14T07:26:27.779Z,8.07
2018-11-14T07:30:31.745Z,7.77
2018-11-14T07:34:35.259Z,8.83
2018-11-14T07:38:46.646Z,9.10
2018-11-14T07:42:50.127Z,8.70
2018-11-14T07:46:53.590Z,9.73
2018-11-14T07:50:57.118Z,6.50
2018-11-14T07:55:00.601Z,7.40
2018-11-14T07:59:04.094Z,7.70
2018-11-14T08:03:07.608Z,7.50
2018-11-14T08:07:11.119Z,6.37
2018-11-14T08:11:14.599Z,5.30
2018-11-14T08:15:18.131Z,7.23
2018-11-14T08:19:21.623Z,6.33
2018-11-14T08:23:25.089Z,4.93
2018-11-14T08:27:28.596Z,5.13
2018-11-14T08:31:32.025Z,8.60
2018-11-14T08:35:35.497Z,5.47
2018-11-14T08:39:39.028Z,5.33
2018-11-14T08:43:42.469Z,4.93
2018-11-14T08:47:45.942Z,5.53
2018-11-14T08:51:49.404Z,7.30
2018-11-14T08:55:52.908Z,4.50
2018-11-14T08:59:56.388Z,5.53
2018-11-14T09:03:59.863Z,5.93
2018-11-14T09:08:03.831Z,4.77
2018-11-14T09:12:07.669Z,5.93
2018-11-14T09:16:11.155Z,4.93
2018-11-14T09:20:15.891Z,7.67
2018-11-14T09:24:19.423Z,4.73
2018-11-14T09:28:22.951Z,5.07
2018-11-14T09:32:26.380Z,5.30
2018-11-14T09:36:29.852Z,5.07
2018-11-14T09:40:33.266Z,4.87
2018-11-14T09:44:37.243Z,4.27
2018-11-14T09:48:40.587Z,6.13
2018-11-14T09:52:45.319Z,4.30
2018-11-14T09:56:48.903Z,6.07
2018-11-14T10:00:52.379Z,4.90
2018-11-14T10:04:55.848Z,5.17
2018-11-14T10:08:59.393Z,4.10
2018-11-14T10:13:03.696Z,5.57
2018-11-14T10:17:07.432Z,4.10
2018-11-14T10:21:11.043Z,4.60
2018-11-14T10:25:15.295Z,3.40
2018-11-14T10:29:19.753Z,5.63
2018-11-14T10:33:23.530Z,4.50
2018-11-14T10:37:27.674Z,4.40
2018-11-14T10:41:31.997Z,7.03
2018-11-14T10:45:35.470Z,7.17
2018-11-14T10:49:38.954Z,4.77
2018-11-14T10:53:42.475Z,4.73
2018-11-14T10:57:45.994Z,6.17
2018-11-14T11:01:54.728Z,6.03
2018-11-14T11:06:03.773Z,5.93
2018-11-14T11:10:12.419Z,5.83
2018-11-14T11:14:21.081Z,6.30
2018-11-14T11:18:25.966Z,6.47
2018-11-14T11:22:29.497Z,7.30
2018-11-14T11:26:32.925Z,7.80
2018-11-14T11:30:36.792Z,5.00
2018-11-14T11:34:40.226Z,6.30
2018-11-14T11:38:43.738Z,5.60
2018-11-14T11:42:47.271Z,4.30
2018-11-14T11:46:50.785Z,7.07
2018-11-14T11:50:54.418Z,5.93
2018-11-14T11:54:57.932Z,5.60
2018-11-14T11:59:02.036Z,5.63
2018-11-14T12:03:05.601Z,6.77
2018-11-14T12:07:09.061Z,7.33
2018-11-14T12:11:12.548Z,6.27
2018-11-14T12:15:16.061Z,5.13
2018-11-14T12:19:19.568Z,6.00
2018-11-14T12:23:22.998Z,7.40
2018-11-14T12:27:26.491Z,4.30
2018-11-14T12:31:29.995Z,5.30
2018-11-14T12:35:33.515Z,5.23
2018-11-14T12:39:37.088Z,3.70
2018-11-14T12:43:40.591Z,4.53
2018-11-14T12:47:44.116Z,3.93
2018-11-14T12:51:47.606Z,3.17
2018-11-14T12:55:51.109Z,3.97
2018-11-14T12:59:54.758Z,4.13
2018-11-14T13:03:58.373Z,5.17
2018-11-14T13:08:01.857Z,2.77
2018-11-14T13:12:05.565Z,2.40
2018-11-14T13:16:09.232Z,4.50
2018-11-14T13:20:16.809Z,7.20
2018-11-14T13:24:20.297Z,3.40
2018-11-14T13:28:23.810Z,6.17
2018-11-14T13:32:27.313Z,5.40
2018-11-14T13:36:31.210Z,5.13
2018-11-14T13:40:34.853Z,3.83
2018-11-14T13:44:38.702Z,4.83
2018-11-14T13:48:42.284Z,4.73
2018-11-14T13:52:45.907Z,5.30
2018-11-14T13:56:49.418Z,4.33
2018-11-14T14:00:53.824Z,4.03
2018-11-14T14:04:57.342Z,4.23
2018-11-14T14:09:00.836Z,5.17
2018-11-14T14:13:05.104Z,5.47
2018-11-14T14:17:08.639Z,4.33
2018-11-14T14:21:12.232Z,4.63
2018-11-14T14:25:16.826Z,4.10
2018-11-14T14:29:20.645Z,3.13
2018-11-14T14:33:24.180Z,3.93
2018-11-14T14:37:27.709Z,3.80
2018-11-14T14:41:31.176Z,5.23
2018-11-14T14:45:35.318Z,7.27
2018-11-14T14:49:38.813Z,4.53
2018-11-14T14:53:42.261Z,3.17
2018-11-14T14:57:46.436Z,6.13
2018-11-14T15:01:49.907Z,4.27
2018-11-14T15:05:53.493Z,4.37
2018-11-14T15:09:57.034Z,5.77
2018-11-14T15:14:00.534Z,6.43
2018-11-14T15:18:04.113Z,4.27
2018-11-14T15:22:07.638Z,5.33
2018-11-14T15:26:11.218Z,3.20
2018-11-14T15:30:18.517Z,7.07
2018-11-14T15:34:22.081Z,6.20
2018-11-14T15:38:25.716Z,6.47
2018-11-14T15:42:29.426Z,6.60
2018-11-14T15:46:33.015Z,4.03
2018-11-14T15:50:36.625Z,5.13
2018-11-14T15:54:40.189Z,3.93
2018-11-14T15:58:43.847Z,4.97
2018-11-14T16:02:47.352Z,6.87
2018-11-14T16:06:51.109Z,6.43
2018-11-14T16:10:54.985Z,7.20
2018-11-14T16:14:58.543Z,5.87
2018-11-14T16:19:02.103Z,7.27
2018-11-14T16:23:05.762Z,7.20
2018-11-14T16:27:09.199Z,6.73
2018-11-14T16:31:12.790Z,5.07
2018-11-14T16:35:16.298Z,7.73
2018-11-14T16:39:19.856Z,3.70
2018-11-14T16:43:23.365Z,6.60
2018-11-14T16:47:27.030Z,7.70
2018-11-14T16:51:30.538Z,5.50
2018-11-14T16:55:34.372Z,11.73
2018-11-14T16:59:37.859Z,6.50
2018-11-14T17:03:41.441Z,12.13
2018-11-14T17:07:44.828Z,6.57
2018-11-14T17:11:48.342Z,9.57
2018-11-14T17:15:51.835Z,9.77
2018-11-14T17:19:55.313Z,12.17
2018-11-14T17:23:58.830Z,8.60
2018-11-14T17:28:02.333Z,8.20
2018-11-14T17:32:06.049Z,8.33
2018-11-14T17:36:09.899Z,8.37
2018-11-14T17:40:15.477Z,7.50
2018-11-14T17:44:18.990Z,11.97
2018-11-14T17:48:22.540Z,7.30
2018-11-14T17:52:25.002Z,5.63
2018-11-14T17:56:28.523Z,8.63
2018-11-14T18:00:33.133Z,6.90
2018-11-14T18:04:36.590Z,11.43
2018-11-14T18:08:40.329Z,11.63
2018-11-14T18:12:44.641Z,8.63
2018-11-14T18:16:48.306Z,7.97
2018-11-14T18:20:51.803Z,9.33
2018-11-14T18:24:55.824Z,9.97
2018-11-14T18:28:59.413Z,9.93
2018-11-14T18:33:03.456Z,9.07
2018-11-14T18:37:06.961Z,9.80
2018-11-14T18:41:10.478Z,8.60
2018-11-14T18:45:26.798Z,9.47
2018-11-14T18:49:30.215Z,9.73
2018-11-14T18:53:33.675Z,7.40
2018-11-14T18:57:37.278Z,7.50
2018-11-14T19:01:40.710Z,8.37
2018-11-14T19:05:44.206Z,10.30
2018-11-14T19:09:47.786Z,9.57
2018-11-14T19:13:52.938Z,11.93
2018-11-14T19:17:56.825Z,10.43
2018-11-14T19:22:00.298Z,12.13
2018-11-14T19:26:03.794Z,10.47
2018-11-14T19:30:09.613Z,10.63
2018-11-14T19:34:13.212Z,9.83
2018-11-14T19:38:16.723Z,9.27
2018-11-14T19:42:20.224Z,16.37
2018-11-14T19:46:23.717Z,9.87
2018-11-14T19:50:27.418Z,12.03
2018-11-14T19:54:30.947Z,10.13
2018-11-14T19:58:34.385Z,9.23
2018-11-14T20:02:37.859Z,9.00
2018-11-14T20:06:41.573Z,10.00
2018-11-14T20:10:45.052Z,11.13
2018-11-14T20:14:48.541Z,8.23
2018-11-14T20:18:52.051Z,7.33
2018-11-14T20:22:55.530Z,8.17
2018-11-14T20:26:59.084Z,7.37
2018-11-14T20:31:02.550Z,8.33
2018-11-14T20:35:06.819Z,9.13
2018-11-14T20:39:11.793Z,7.43
2018-11-14T20:43:15.273Z,8.57
2018-11-14T20:47:18.738Z,10.57
2018-11-14T20:51:22.215Z,10.00
2018-11-14T20:55:25.821Z,8.40
2018-11-14T20:59:29.357Z,8.33
2018-11-14T21:03:32.818Z,7.73
2018-11-14T21:07:36.359Z,9.67
2018-11-14T21:11:39.818Z,10.20
2018-11-14T21:15:43.440Z,8.30
2018-11-14T21:19:46.863Z,7.73
2018-11-14T21:23:50.324Z,8.57
2018-11-14T21:27:54.345Z,6.93
2018-11-14T21:31:57.844Z,8.40
2018-11-14T21:36:01.285Z,8.40
2018-11-14T21:40:06.096Z,8.33
2018-11-14T21:44:09.537Z,9.07
2018-11-14T21:48:14.301Z,7.30
2018-11-14T21:52:18.113Z,9.47
2018-11-14T21:56:21.891Z,11.80
2018-11-14T22:00:30.619Z,10.30
2018-11-14T22:04:34.086Z,10.63
2018-11-14T22:08:37.542Z,8.20
2018-11-14T22:12:41.548Z,8.10
2018-11-14T22:16:45.078Z,11.47
2018-11-14T22:20:48.601Z,11.67
2018-11-14T22:24:52.082Z,8.60
2018-11-14T22:28:55.543Z,8.40
2018-11-14T22:33:00.126Z,9.60
2018-11-14T22:37:03.724Z,9.77
2018-11-14T22:41:07.191Z,9.07
2018-11-14T22:45:12.994Z,8.83
2018-11-14T22:49:16.426Z,8.90
2018-11-14T22:53:19.885Z,9.10
2018-11-14T22:57:23.352Z,10.97
2018-11-14T23:01:26.826Z,8.90
2018-11-14T23:05:30.399Z,9.63
2018-11-14T23:09:33.875Z,10.13
2018-11-14T23:13:37.376Z,9.17
2018-11-14T23:17:40.811Z,12.90
2018-11-14T23:21:44.341Z,10.27
2018-11-14T23:25:47.841Z,9.23
2018-11-14T23:29:51.303Z,12.70
2018-11-14T23:33:54.788Z,9.13
2018-11-14T23:38:02.526Z,11.63
2018-11-14T23:42:06.058Z,7.50
2018-11-14T23:46:09.590Z,12.90
2018-11-14T23:50:15.555Z,11.37
2018-11-14T23:54:19.206Z,9.40
2018-11-14T23:58:22.703Z,10.30
